Time;durP1;ratioP1;P1;durP2;ratioP2;P2;SDS_P1;SDS_P2;PMS_P1;PMS_P2;Temp;Humidity;BMP_temperature;BMP_pressure;BME280_temperature;BME280_humidity;BME280_pressure;Samples;Min_cycle;Max_cycle;Signal;HPM_P1;HPM_P2
2022/10/12 00:02:00;;;;;;;14.50;8.00;;;4.90;99.90;;;;;;5033034;28;20195;-68
2022/10/12 00:04:26;;;;;;;11.80;8.03;;;4.80;99.90;;;;;;5033233;28;20183;-66
2022/10/12 00:06:51;;;;;;;13.07;8.43;;;4.80;99.90;;;;;;5033117;28;20207;-67
2022/10/12 00:09:17;;;;;;;11.67;7.90;;;4.80;99.90;;;;;;5033457;28;20189;-66
2022/10/12 00:11:43;;;;;;;11.20;8.17;;;4.90;99.90;;;;;;5033001;28;20222;-67
2022/10/12 00:14:09;;;;;;;13.53;8.47;;;4.90;99.90;;;;;;5031775;28;20218;-67
2022/10/12 00:16:35;;;;;;;13.67;9.03;;;4.90;99.90;;;;;;5033049;28;20182;-67
2022/10/12 00:19:01;;;;;;;13.60;8.20;;;4.90;99.90;;;;;;5032902;28;20183;-67
2022/10/12 00:21:28;;;;;;;11.17;7.50;;;4.80;99.90;;;;;;5033009;28;20305;-67
2022/10/12 00:23:58;;;;;;;12.60;8.00;;;4.70;99.90;;;;;;5032951;28;20214;-66
2022/10/12 00:26:25;;;;;;;12.50;8.70;;;4.70;99.90;;;;;;5032914;28;20175;-66
2022/10/12 00:28:59;;;;;;;12.00;8.40;;;4.70;99.90;;;;;;5032793;28;20236;-66
2022/10/12 00:31:27;;;;;;;13.13;8.60;;;4.70;99.90;;;;;;5032938;28;20577;-67
2022/10/12 00:33:53;;;;;;;11.47;8.20;;;4.70;99.90;;;;;;5032768;28;20182;-67
2022/10/12 00:36:24;;;;;;;11.83;8.90;;;4.70;99.90;;;;;;5032694;28;20640;-67
2022/10/12 00:38:52;;;;;;;10.23;8.77;;;4.70;99.90;;;;;;5033475;28;20644;-67
2022/10/12 00:41:21;;;;;;;13.03;8.70;;;4.70;99.90;;;;;;5036852;28;20186;-67
2022/10/12 00:43:48;;;;;;;14.50;8.17;;;4.70;99.90;;;;;;5036369;28;20175;-67
2022/10/12 00:46:19;;;;;;;12.13;8.70;;;4.70;99.90;;;;;;5036298;28;20198;-67
2022/10/12 00:49:13;;;;;;;10.90;7.97;;;4.70;99.90;;;;;;5034798;28;20191;-67
2022/10/12 00:51:40;;;;;;;13.07;8.77;;;4.60;99.90;;;;;;5034431;28;20277;-67
2022/10/12 00:54:11;;;;;;;14.13;9.83;;;4.60;99.90;;;;;;5036428;28;20254;-67
2022/10/12 00:56:39;;;;;;;12.47;9.90;;;4.60;99.90;;;;;;5036073;28;20209;-67
2022/10/12 00:59:09;;;;;;;14.63;9.03;;;4.50;99.90;;;;;;5035894;28;20179;-67
2022/10/12 01:01:35;;;;;;;14.47;9.17;;;4.50;99.90;;;;;;5035929;28;20229;-67
2022/10/12 01:04:02;;;;;;;13.40;8.83;;;4.40;99.90;;;;;;5035987;28;20175;-66
2022/10/12 01:06:29;;;;;;;11.13;8.47;;;4.40;99.90;;;;;;5036026;28;20237;-66
2022/10/12 01:08:56;;;;;;;11.23;8.80;;;4.40;99.90;;;;;;5036016;28;20207;-67
2022/10/12 01:11:22;;;;;;;16.13;9.97;;;4.40;99.90;;;;;;5035632;28;20207;-66
2022/10/12 01:13:48;;;;;;;14.63;9.80;;;4.40;99.90;;;;;;5034476;28;20248;-67
2022/10/12 01:16:40;;;;;;;15.33;9.50;;;4.40;99.90;;;;;;5035911;28;20175;-67
2022/10/12 01:19:05;;;;;;;13.50;9.80;;;4.40;99.90;;;;;;5035803;28;20571;-67
2022/10/12 01:21:38;;;;;;;15.23;9.70;;;4.40;99.90;;;;;;5035364;28;20230;-67
2022/10/12 01:24:40;;;;;;;13.57;10.20;;;4.40;99.90;;;;;;5035940;28;20163;-67
2022/10/12 01:27:28;;;;;;;12.20;8.37;;;4.30;99.90;;;;;;5034014;28;20274;-67
2022/10/12 01:30:06;;;;;;;11.37;9.43;;;4.20;99.90;;;;;;5035812;28;20193;-66
2022/10/12 01:32:51;;;;;;;14.87;10.43;;;4.20;99.90;;;;;;5034002;28;20218;-66
2022/10/12 01:35:23;;;;;;;14.17;9.40;;;4.30;99.90;;;;;;5034087;28;20230;-67
2022/10/12 01:38:10;;;;;;;12.47;8.43;;;4.20;99.90;;;;;;5035414;28;20272;-69
2022/10/12 01:40:59;;;;;;;13.90;9.53;;;4.20;99.90;;;;;;5035648;28;20176;-66
2022/10/12 01:43:38;;;;;;;11.73;10.17;;;4.20;99.90;;;;;;5035108;28;20203;-67
2022/10/12 01:46:25;;;;;;;17.00;10.10;;;4.20;99.90;;;;;;5033840;28;20167;-67
2022/10/12 01:48:56;;;;;;;14.50;10.00;;;4.20;99.90;;;;;;5014750;28;20199;-66
2022/10/12 01:51:34;;;;;;;16.77;10.60;;;4.10;99.90;;;;;;5014312;28;20238;-66
2022/10/12 01:54:07;;;;;;;14.67;10.37;;;4.00;99.90;;;;;;5014211;28;20591;-66
2022/10/12 01:56:41;;;;;;;16.73;10.80;;;4.10;99.90;;;;;;5015665;28;20169;-66
2022/10/12 01:59:26;;;;;;;14.90;10.47;;;4.00;99.90;;;;;;5013841;28;20575;-67
2022/10/12 02:01:55;;;;;;;13.40;10.03;;;4.00;99.90;;;;;;5015170;28;20208;-67
2022/10/12 02:04:43;;;;;;;13.83;10.37;;;4.00;99.90;;;;;;5013809;28;20649;-67
2022/10/12 02:07:21;;;;;;;14.03;9.60;;;3.90;99.90;;;;;;5014911;28;20192;-67
2022/10/12 02:09:47;;;;;;;10.90;8.43;;;3.80;99.90;;;;;;5015507;28;20176;-67
2022/10/12 02:12:19;;;;;;;10.77;9.13;;;3.60;99.90;;;;;;5014789;28;20581;-66
2022/10/12 02:14:52;;;;;;;11.97;8.23;;;3.50;99.90;;;;;;5014904;28;20226;-67
2022/10/12 02:17:21;;;;;;;10.77;8.60;;;3.50;99.90;;;;;;5020745;28;20641;-66
2022/10/12 02:19:52;;;;;;;9.87;8.20;;;3.40;99.90;;;;;;5035882;28;20190;-66
2022/10/12 02:22:18;;;;;;;12.43;8.07;;;3.40;99.90;;;;;;5034550;28;20203;-67
2022/10/12 02:24:50;;;;;;;9.23;7.70;;;3.40;99.90;;;;;;5035023;28;20183;-67
2022/10/12 02:27:18;;;;;;;12.17;8.57;;;3.40;99.90;;;;;;5034591;28;20648;-66
2022/10/12 02:29:46;;;;;;;11.13;9.33;;;3.50;99.90;;;;;;5034629;28;20569;-66
2022/10/12 02:32:28;;;;;;;12.13;8.70;;;3.50;99.90;;;;;;5034242;28;20211;-66
2022/10/12 02:35:20;;;;;;;13.93;9.73;;;3.50;99.90;;;;;;5033219;28;20541;-67
2022/10/12 02:37:52;;;;;;;14.67;9.87;;;3.50;99.90;;;;;;5034200;28;20268;-67
2022/10/12 02:40:33;;;;;;;12.47;9.60;;;3.60;99.90;;;;;;5034674;28;20278;-66
2022/10/12 02:43:15;;;;;;;15.73;10.30;;;3.60;99.90;;;;;;5034270;28;20206;-66
2022/10/12 02:45:45;;;;;;;15.20;10.27;;;3.40;99.90;;;;;;5032864;28;20262;-66
2022/10/12 02:48:15;;;;;;;12.97;10.60;;;3.50;99.90;;;;;;5032685;28;20643;-66
2022/10/12 02:50:42;;;;;;;13.23;9.83;;;3.40;99.90;;;;;;5034137;28;20183;-67
2022/10/12 02:53:09;;;;;;;11.97;10.07;;;3.40;99.90;;;;;;5033989;28;20195;-67
2022/10/12 02:55:55;;;;;;;11.13;8.87;;;3.40;99.90;;;;;;5032641;28;20278;-66
2022/10/12 02:58:21;;;;;;;13.73;9.23;;;3.30;99.90;;;;;;5033891;28;20632;-66
2022/10/12 03:00:46;;;;;;;12.23;8.90;;;3.20;99.90;;;;;;5033852;28;20167;-66
2022/10/12 03:03:12;;;;;;;12.00;8.50;;;3.30;99.90;;;;;;5033965;28;20195;-67
2022/10/12 03:05:38;;;;;;;11.03;8.80;;;3.10;99.90;;;;;;5032492;28;20181;-66
2022/10/12 03:08:04;;;;;;;11.50;8.60;;;3.00;99.90;;;;;;5033446;28;20205;-67
2022/10/12 03:10:30;;;;;;;10.00;8.27;;;3.00;99.90;;;;;;5032389;28;20206;-66
2022/10/12 03:12:55;;;;;;;10.77;9.17;;;2.90;99.90;;;;;;5033563;28;20219;-67
2022/10/12 03:15:21;;;;;;;10.10;8.03;;;2.80;99.90;;;;;;5034364;28;20654;-66
2022/10/12 03:17:47;;;;;;;9.67;8.77;;;2.80;99.90;;;;;;5032172;28;20186;-66
2022/10/12 03:20:12;;;;;;;11.17;8.30;;;2.70;99.90;;;;;;5033946;28;20186;-67
2022/10/12 03:22:38;;;;;;;11.17;8.57;;;2.70;99.90;;;;;;5033424;28;20655;-67
2022/10/12 03:25:04;;;;;;;10.73;8.97;;;2.70;99.90;;;;;;5033448;28;20713;-67
2022/10/12 03:27:30;;;;;;;12.30;9.27;;;2.80;99.90;;;;;;5033491;28;20191;-67
2022/10/12 03:29:56;;;;;;;14.40;10.07;;;2.80;99.90;;;;;;5033638;28;20164;-66
2022/10/12 03:32:21;;;;;;;12.83;8.60;;;2.90;99.90;;;;;;5033573;28;20217;-67
2022/10/12 03:34:47;;;;;;;13.47;9.67;;;2.90;99.90;;;;;;5033974;28;20182;-66
2022/10/12 03:37:13;;;;;;;12.73;10.70;;;3.00;99.90;;;;;;5033189;28;20170;-67
2022/10/12 03:39:39;;;;;;;14.37;10.63;;;3.00;99.90;;;;;;5033315;28;20195;-66
2022/10/12 03:42:04;;;;;;;17.90;11.13;;;3.00;99.90;;;;;;5031950;28;20202;-66
2022/10/12 03:44:30;;;;;;;18.97;11.43;;;3.00;99.90;;;;;;5032059;28;20183;-66
2022/10/12 03:46:56;;;;;;;15.77;11.17;;;3.00;99.90;;;;;;5033071;28;20179;-66
2022/10/12 03:49:22;;;;;;;12.70;10.07;;;3.00;99.90;;;;;;5031953;28;20632;-66
2022/10/12 03:51:47;;;;;;;10.73;9.43;;;2.90;99.90;;;;;;5033131;28;20210;-67
2022/10/12 03:54:13;;;;;;;9.57;8.43;;;2.80;99.90;;;;;;5033232;28;20182;-66
2022/10/12 03:56:39;;;;;;;10.67;8.90;;;2.80;99.90;;;;;;5033406;28;20534;-67
2022/10/12 03:59:05;;;;;;;16.07;9.27;;;2.80;99.90;;;;;;5033699;28;20178;-67
2022/10/12 04:01:30;;;;;;;9.40;8.30;;;2.80;99.90;;;;;;5031736;28;20203;-66
2022/10/12 04:03:56;;;;;;;16.77;9.93;;;2.70;99.90;;;;;;5033667;28;20179;-66
2022/10/12 04:06:22;;;;;;;12.83;9.63;;;2.70;99.90;;;;;;5033078;28;20702;-66
2022/10/12 04:08:48;;;;;;;11.43;10.13;;;2.70;99.90;;;;;;5032944;28;20199;-67
2022/10/12 04:11:13;;;;;;;11.77;10.20;;;2.80;99.90;;;;;;5031685;28;20285;-66
2022/10/12 04:13:39;;;;;;;14.77;9.53;;;2.80;99.90;;;;;;5031736;28;20644;-67
2022/10/12 04:16:06;;;;;;;13.93;9.77;;;2.80;99.90;;;;;;5036883;28;20632;-67
2022/10/12 04:18:33;;;;;;;18.07;10.87;;;2.80;99.90;;;;;;5035499;28;20624;-67
2022/10/12 04:21:00;;;;;;;14.77;10.43;;;2.90;99.90;;;;;;5037060;28;20534;-66
2022/10/12 04:23:25;;;;;;;14.67;10.90;;;3.00;99.90;;;;;;5036521;28;20203;-66
2022/10/12 04:25:51;;;;;;;14.73;10.33;;;3.00;99.90;;;;;;5036683;28;20178;-66
2022/10/12 04:28:17;;;;;;;13.27;9.90;;;3.00;99.90;;;;;;5035115;28;20244;-66
2022/10/12 04:30:44;;;;;;;18.97;10.67;;;3.00;99.90;;;;;;5036763;28;20228;-66
2022/10/12 04:33:11;;;;;;;16.97;11.20;;;2.90;99.90;;;;;;5036371;28;20202;-66
2022/10/12 04:35:36;;;;;;;17.23;10.47;;;2.90;99.90;;;;;;5036362;28;20179;-66
2022/10/12 04:38:03;;;;;;;17.30;10.23;;;2.80;99.90;;;;;;5036407;28;20246;-66
2022/10/12 04:40:28;;;;;;;17.40;9.83;;;2.90;99.90;;;;;;5036333;28;20202;-66
2022/10/12 04:42:55;;;;;;;19.43;10.57;;;2.90;99.90;;;;;;5036446;28;20278;-66
2022/10/12 04:45:21;;;;;;;16.80;10.63;;;2.90;99.90;;;;;;5036497;28;20202;-66
2022/10/12 04:47:47;;;;;;;13.30;11.40;;;2.90;99.90;;;;;;5036256;28;20179;-67
2022/10/12 04:50:13;;;;;;;12.77;10.77;;;3.00;99.90;;;;;;5034848;28;20647;-66
2022/10/12 04:52:39;;;;;;;15.87;11.03;;;3.00;99.90;;;;;;5034627;28;20687;-66
2022/10/12 04:55:05;;;;;;;12.17;9.57;;;3.00;99.90;;;;;;5035129;28;20573;-66
2022/10/12 04:57:31;;;;;;;13.97;10.67;;;2.80;99.90;;;;;;5034690;28;20233;-66
2022/10/12 04:59:57;;;;;;;11.87;10.10;;;2.80;99.90;;;;;;5036070;28;20205;-66
2022/10/12 05:02:22;;;;;;;13.03;9.67;;;2.70;99.90;;;;;;5034664;28;20710;-67
2022/10/12 05:04:48;;;;;;;14.80;9.57;;;2.70;99.90;;;;;;5035909;28;20183;-66
2022/10/12 05:07:14;;;;;;;13.33;10.03;;;2.70;99.90;;;;;;5036048;28;20199;-67
2022/10/12 05:09:40;;;;;;;11.60;9.20;;;2.70;99.90;;;;;;5035679;28;20175;-67
2022/10/12 05:12:06;;;;;;;12.70;9.87;;;2.60;99.90;;;;;;5035886;28;20214;-67
2022/10/12 05:14:32;;;;;;;12.40;8.80;;;2.60;99.90;;;;;;5035972;28;20178;-67
2022/10/12 05:16:57;;;;;;;12.57;9.43;;;2.60;99.90;;;;;;5035833;28;20174;-67
2022/10/12 05:19:23;;;;;;;10.90;9.10;;;2.60;99.90;;;;;;5034251;28;20171;-67
2022/10/12 05:21:49;;;;;;;12.03;9.50;;;2.60;99.90;;;;;;5034028;28;20626;-67
2022/10/12 05:24:14;;;;;;;10.83;8.97;;;2.60;99.90;;;;;;5035545;28;20550;-67
2022/10/12 05:26:40;;;;;;;11.87;8.47;;;2.60;99.90;;;;;;5035688;28;20181;-70
2022/10/12 05:29:06;;;;;;;11.53;9.03;;;2.60;99.90;;;;;;5035495;28;20234;-67
2022/10/12 05:31:32;;;;;;;10.83;8.73;;;2.60;99.90;;;;;;5035291;28;20764;-67
2022/10/12 05:33:58;;;;;;;10.43;9.37;;;2.50;99.90;;;;;;5034109;28;20598;-67
2022/10/12 05:36:24;;;;;;;12.07;9.13;;;2.60;99.90;;;;;;5035506;28;20171;-67
2022/10/12 05:38:50;;;;;;;12.87;9.83;;;2.60;99.90;;;;;;5033853;28;20179;-67
2022/10/12 05:41:15;;;;;;;11.50;8.87;;;2.70;99.90;;;;;;5035460;28;20206;-66
2022/10/12 05:43:41;;;;;;;11.47;9.50;;;2.70;99.90;;;;;;5035501;28;20163;-67
2022/10/12 05:46:07;;;;;;;14.13;9.20;;;2.70;99.90;;;;;;5035302;28;20258;-63
2022/10/12 05:48:33;;;;;;;10.73;8.43;;;2.80;99.90;;;;;;5035021;28;20183;-64
2022/10/12 05:50:58;;;;;;;11.10;8.70;;;2.80;99.90;;;;;;5034976;28;20179;-63
2022/10/12 05:53:24;;;;;;;9.93;8.67;;;2.80;99.90;;;;;;5034896;28;20236;-64
2022/10/12 05:55:55;;;;;;;11.10;9.13;;;2.90;99.90;;;;;;5033543;28;20219;-63
2022/10/12 05:58:21;;;;;;;14.57;9.80;;;3.00;99.90;;;;;;5034852;28;20205;-63
2022/10/12 06:00:47;;;;;;;13.23;9.00;;;3.00;99.90;;;;;;5034990;28;20174;-64
2022/10/12 06:03:13;;;;;;;15.30;9.40;;;3.10;99.90;;;;;;5034788;28;20221;-64
2022/10/12 06:05:38;;;;;;;14.23;10.00;;;3.10;99.90;;;;;;5034870;28;20541;-64
2022/10/12 06:08:04;;;;;;;17.60;10.77;;;3.10;99.90;;;;;;5034634;28;20333;-64
2022/10/12 06:10:30;;;;;;;12.77;10.77;;;3.10;99.90;;;;;;5035056;28;20174;-64
2022/10/12 06:12:56;;;;;;;13.17;10.13;;;3.10;99.90;;;;;;5034484;28;20628;-63
2022/10/12 06:15:22;;;;;;;11.83;9.30;;;3.00;99.90;;;;;;5034557;28;20172;-63
2022/10/12 06:17:47;;;;;;;11.77;9.50;;;3.00;99.90;;;;;;5034770;28;20233;-63
2022/10/12 06:20:13;;;;;;;11.43;9.33;;;3.00;99.90;;;;;;5034450;28;20687;-63
2022/10/12 06:22:39;;;;;;;11.30;9.30;;;3.00;99.90;;;;;;5034263;28;20201;-63
2022/10/12 06:25:05;;;;;;;12.83;9.87;;;3.00;99.90;;;;;;5034409;28;20184;-63
2022/10/12 06:27:31;;;;;;;11.43;9.47;;;3.00;99.90;;;;;;5032913;28;20266;-63
2022/10/12 06:29:56;;;;;;;12.83;10.57;;;2.90;99.90;;;;;;5033041;28;20183;-63
2022/10/12 06:32:22;;;;;;;11.77;10.33;;;3.00;99.90;;;;;;5034376;28;20211;-63
2022/10/12 06:34:48;;;;;;;13.03;10.67;;;2.90;99.90;;;;;;5034187;28;20171;-64
2022/10/12 06:37:14;;;;;;;13.07;9.87;;;2.90;99.90;;;;;;5033580;28;20250;-64
2022/10/12 06:39:39;;;;;;;18.57;11.03;;;3.00;99.90;;;;;;5034604;28;20258;-63
2022/10/12 06:42:06;;;;;;;14.90;10.90;;;3.00;99.90;;;;;;5034151;28;20191;-64
2022/10/12 06:44:32;;;;;;;14.60;9.83;;;3.00;99.90;;;;;;5034028;28;20178;-64
2022/10/12 06:46:58;;;;;;;12.97;9.17;;;3.00;99.90;;;;;;5033874;28;20175;-64
2022/10/12 06:49:24;;;;;;;13.67;9.30;;;3.00;99.90;;;;;;5033956;28;20183;-64
2022/10/12 06:51:50;;;;;;;12.57;9.73;;;3.20;99.90;;;;;;5034046;28;20211;-64
2022/10/12 06:54:16;;;;;;;11.93;10.40;;;3.20;99.90;;;;;;5033877;28;20661;-64
2022/10/12 06:56:43;;;;;;;10.73;9.40;;;3.30;99.90;;;;;;5034319;28;20174;-64
2022/10/12 06:59:11;;;;;;;12.80;9.33;;;3.30;99.90;;;;;;5033723;28;20171;-63
2022/10/12 07:01:37;;;;;;;14.00;10.60;;;3.30;99.90;;;;;;5032322;28;20195;-63
2022/10/12 07:04:03;;;;;;;12.43;9.80;;;3.40;99.90;;;;;;5033682;28;20194;-63
2022/10/12 07:06:29;;;;;;;11.33;9.87;;;3.40;99.90;;;;;;5034309;28;20639;-63
2022/10/12 07:08:55;;;;;;;16.30;10.60;;;3.50;99.90;;;;;;5033368;28;20607;-63
2022/10/12 07:11:21;;;;;;;14.27;10.23;;;3.60;99.90;;;;;;5033798;28;20289;-63
2022/10/12 07:13:47;;;;;;;12.17;10.50;;;3.80;99.90;;;;;;5032149;28;20260;-64
2022/10/12 07:16:13;;;;;;;17.27;11.20;;;4.00;99.90;;;;;;5033704;28;20256;-63
2022/10/12 07:18:39;;;;;;;19.67;12.07;;;4.20;99.90;;;;;;5033294;28;20225;-64
2022/10/12 07:21:05;;;;;;;16.17;11.87;;;4.40;99.90;;;;;;5033511;28;20684;-63
2022/10/12 07:23:32;;;;;;;16.63;11.93;;;4.60;99.90;;;;;;5033211;28;20706;-63
2022/10/12 07:25:58;;;;;;;16.97;11.80;;;4.90;99.90;;;;;;5033172;28;20163;-63
2022/10/12 07:28:25;;;;;;;17.13;11.47;;;5.10;99.90;;;;;;5032894;28;20248;-63
2022/10/12 07:30:51;;;;;;;14.77;10.73;;;5.30;99.90;;;;;;5032950;28;20550;-63
2022/10/12 07:33:17;;;;;;;21.17;12.00;;;5.50;99.90;;;;;;5032822;28;20195;-63
2022/10/12 07:35:43;;;;;;;20.10;12.13;;;5.80;99.90;;;;;;5033238;28;20167;-63
2022/10/12 07:38:09;;;;;;;13.37;10.37;;;5.90;99.90;;;;;;5033048;28;20189;-63
2022/10/12 07:40:36;;;;;;;15.37;10.50;;;6.10;99.90;;;;;;5031833;28;20175;-63
2022/10/12 07:43:01;;;;;;;14.10;10.83;;;6.20;99.90;;;;;;5033537;28;20250;-63
2022/10/12 07:45:27;;;;;;;18.20;12.50;;;6.50;99.90;;;;;;5033473;28;20179;-63
2022/10/12 07:47:54;;;;;;;17.37;10.83;;;6.50;99.90;;;;;;5033177;28;20244;-63
2022/10/12 07:50:20;;;;;;;19.23;10.77;;;6.50;99.90;;;;;;5035890;28;20186;-63
2022/10/12 07:52:46;;;;;;;15.27;11.83;;;6.60;99.90;;;;;;5037201;28;20202;-63
2022/10/12 07:55:11;;;;;;;13.63;10.57;;;6.80;99.90;;;;;;5037226;28;20203;-63
2022/10/12 07:57:37;;;;;;;18.23;11.47;;;7.00;99.90;;;;;;5037634;28;20202;-63
2022/10/12 08:00:04;;;;;;;17.10;10.73;;;7.20;99.90;;;;;;5037699;28;20639;-63
2022/10/12 08:02:30;;;;;;;14.17;10.60;;;7.40;99.90;;;;;;5037430;28;20206;-63
2022/10/12 08:04:55;;;;;;;14.33;10.13;;;7.60;99.90;;;;;;5037766;28;20183;-63
2022/10/12 08:07:21;;;;;;;14.40;11.37;;;7.70;99.90;;;;;;5037006;28;20179;-63
2022/10/12 08:09:48;;;;;;;19.53;11.13;;;7.90;99.90;;;;;;5037050;28;20545;-63
2022/10/12 08:12:14;;;;;;;17.63;10.43;;;8.00;99.90;;;;;;5037017;28;20207;-63
2022/10/12 08:14:40;;;;;;;14.13;9.70;;;8.00;99.90;;;;;;5037363;28;20198;-63
2022/10/12 08:17:06;;;;;;;19.93;10.53;;;8.10;99.90;;;;;;5036988;28;20226;-63
2022/10/12 08:19:34;;;;;;;16.73;10.33;;;8.20;99.90;;;;;;5035620;28;20175;-63
2022/10/12 08:21:59;;;;;;;20.20;10.30;;;8.30;99.90;;;;;;5036810;28;20286;-63
2022/10/12 08:24:25;;;;;;;14.60;9.37;;;8.50;99.90;;;;;;5036898;28;20266;-63
2022/10/12 08:26:51;;;;;;;16.50;9.67;;;8.80;99.90;;;;;;5036638;28;20183;-63
2022/10/12 08:29:17;;;;;;;13.53;9.03;;;8.90;99.90;;;;;;5035217;28;20195;-63
2022/10/12 08:31:42;;;;;;;16.17;10.47;;;9.00;99.90;;;;;;5035945;28;20246;-63
2022/10/12 08:34:08;;;;;;;16.27;9.27;;;9.30;99.90;;;;;;5035224;28;20175;-63
2022/10/12 08:36:34;;;;;;;14.27;9.63;;;9.50;99.90;;;;;;5034256;28;20584;-63
2022/10/12 08:39:01;;;;;;;12.63;8.20;;;9.60;99.90;;;;;;5035148;28;20167;-63
2022/10/12 08:41:50;;;;;;;14.30;9.47;;;9.90;99.90;;;;;;5035105;28;20254;-63
2022/10/12 08:44:22;;;;;;;11.87;7.93;;;10.00;99.90;;;;;;5033915;28;20179;-63
2022/10/12 08:46:53;;;;;;;12.57;7.87;;;10.10;99.90;;;;;;5035036;28;20214;-63
2022/10/12 08:49:23;;;;;;;10.30;6.80;;;10.30;99.90;;;;;;5035167;28;20711;-63
2022/10/12 08:51:54;;;;;;;12.17;7.20;;;10.40;99.90;;;;;;5034992;28;20207;-62
2022/10/12 08:54:23;;;;;;;14.73;8.13;;;10.50;99.90;;;;;;5035221;28;20565;-63
2022/10/12 08:56:52;;;;;;;16.10;7.87;;;10.70;99.90;;;;;;5034164;28;20582;-63
2022/10/12 08:59:18;;;;;;;12.73;7.23;;;10.80;99.90;;;;;;5034850;28;20179;-63
2022/10/12 09:02:07;;;;;;;11.43;8.00;;;11.00;99.90;;;;;;5034763;28;20195;-63
2022/10/12 09:05:05;;;;;;;18.40;8.23;;;11.00;99.90;;;;;;5035073;28;20216;-63
2022/10/12 09:07:35;;;;;;;10.70;7.70;;;11.20;99.90;;;;;;5034999;28;20226;-63
2022/10/12 09:10:23;;;;;;;12.33;8.10;;;11.30;99.90;;;;;;5033535;28;20262;-63
2022/10/12 09:12:55;;;;;;;14.90;7.40;;;11.40;99.90;;;;;;5033325;28;20211;-63
2022/10/12 09:15:28;;;;;;;14.93;7.00;;;11.50;99.90;;;;;;5034719;28;20221;-63
2022/10/12 09:17:55;;;;;;;14.00;7.93;;;11.60;99.90;;;;;;5034760;28;20171;-63
2022/10/12 09:20:43;;;;;;;10.10;6.43;;;11.70;99.90;;;;;;5034636;28;20179;-63
2022/10/12 09:23:30;;;;;;;8.13;5.97;;;11.80;99.90;;;;;;5034569;28;20195;-63
2022/10/12 09:26:06;;;;;;;11.30;7.07;;;11.90;99.90;;;;;;5034584;28;20593;-63
2022/10/12 09:28:56;;;;;;;13.07;7.00;;;12.00;99.90;;;;;;4990922;28;1267934;-63
2022/10/12 09:31:59;;;;;;;10.50;6.77;;;11.90;99.90;;;;;;5034793;28;20226;-63
2022/10/12 09:34:25;;;;;;;13.77;6.80;;;12.00;99.90;;;;;;5035729;28;20185;-63
2022/10/12 09:36:52;;;;;;;17.80;6.60;;;12.20;99.90;;;;;;5035213;28;20692;-63
2022/10/12 09:39:20;;;;;;;9.07;6.03;;;12.30;99.90;;;;;;5035850;28;20160;-63
2022/10/12 09:41:48;;;;;;;10.35;6.18;;;12.40;99.90;;;;;;5035822;28;20567;-63
2022/10/12 09:44:16;;;;;;;10.65;6.03;;;12.40;99.90;;;;;;5035461;28;20179;-63
2022/10/12 09:46:48;;;;;;;9.68;6.40;;;12.40;99.90;;;;;;5035078;28;20190;-63
2022/10/12 09:49:14;;;;;;;7.95;5.90;;;12.30;99.90;;;;;;5014154;28;20206;-63
2022/10/12 09:51:40;;;;;;;10.90;6.07;;;12.30;99.90;;;;;;5015144;28;20239;-63
2022/10/12 09:54:14;;;;;;;13.35;5.97;;;12.40;99.90;;;;;;5015214;28;20221;-63
2022/10/12 09:56:51;;;;;;;10.40;6.13;;;12.50;99.90;;;;;;5013977;28;20172;-63
2022/10/12 09:59:36;;;;;;;13.43;6.25;;;12.60;99.90;;;;;;5015812;28;20160;-63
2022/10/12 10:02:10;;;;;;;10.25;6.20;;;12.60;99.90;;;;;;5013812;28;20215;-63
2022/10/12 10:04:38;;;;;;;8.98;5.72;;;12.50;99.90;;;;;;5015185;28;20679;-63
2022/10/12 10:07:19;;;;;;;11.82;5.88;;;12.60;99.90;;;;;;5015106;28;20549;-63
2022/10/12 10:09:45;;;;;;;14.60;5.60;;;12.70;99.90;;;;;;5015000;28;20265;-63
2022/10/12 10:12:27;;;;;;;10.27;5.38;;;12.80;99.90;;;;;;5012927;28;20581;-63
2022/10/12 10:14:56;;;;;;;8.35;5.10;;;12.80;99.90;;;;;;5015176;28;20160;-63
2022/10/12 10:17:27;;;;;;;5.60;4.95;;;12.70;99.90;;;;;;5019878;28;20689;-63
2022/10/12 10:19:55;;;;;;;8.85;5.43;;;12.80;99.90;;;;;;5034929;28;20174;-63
2022/10/12 10:22:22;;;;;;;10.57;5.13;;;12.80;99.90;;;;;;5035136;28;20570;-63
2022/10/12 10:24:57;;;;;;;7.95;5.10;;;12.90;99.90;;;;;;5034868;28;20194;-63
2022/10/12 10:27:38;;;;;;;11.02;5.47;;;12.90;99.90;;;;;;5033321;28;20643;-63
2022/10/12 10:30:15;;;;;;;13.63;5.35;;;12.90;99.90;;;;;;5034848;28;20268;-63
2022/10/12 10:32:45;;;;;;;16.45;5.80;;;13.00;99.90;;;;;;5034232;28;20211;-63
2022/10/12 10:35:11;;;;;;;9.85;5.13;;;13.00;99.90;;;;;;5034673;28;20213;-63
2022/10/12 10:37:41;;;;;;;7.93;5.35;;;13.00;99.90;;;;;;5034152;28;20639;-63
2022/10/12 10:40:20;;;;;;;10.18;4.57;;;13.20;99.90;;;;;;5034099;28;20171;-63
2022/10/12 10:42:56;;;;;;;9.98;4.25;;;13.40;99.90;;;;;;5032940;28;20210;-63
2022/10/12 10:45:29;;;;;;;9.18;4.72;;;13.60;99.90;;;;;;5034028;28;20179;-63
2022/10/12 10:48:00;;;;;;;8.80;4.60;;;13.80;99.90;;;;;;5034023;28;20183;-63
2022/10/12 10:50:36;;;;;;;7.65;4.22;;;14.00;99.90;;;;;;5034256;28;20682;-64
2022/10/12 10:53:12;;;;;;;9.18;4.35;;;14.00;99.90;;;;;;5033981;28;20213;-63
2022/10/12 10:55:41;;;;;;;12.27;5.57;;;14.00;99.90;;;;;;5032609;28;20177;-64
2022/10/12 10:58:21;;;;;;;7.45;3.97;;;14.00;99.90;;;;;;5033800;28;20175;-63
2022/10/12 11:00:47;;;;;;;8.38;4.57;;;14.00;99.90;;;;;;5033842;28;20531;-64
2022/10/12 11:03:21;;;;;;;8.32;4.07;;;14.20;99.90;;;;;;5033724;28;20202;-63
2022/10/12 11:05:56;;;;;;;9.00;4.32;;;14.40;99.90;;;;;;5032468;28;20594;-63
2022/10/12 11:08:25;;;;;;;14.38;4.53;;;14.60;99.90;;;;;;5033615;28;20650;-63
2022/10/12 11:11:00;;;;;;;6.20;3.85;;;14.70;99.90;;;;;;5033620;28;20179;-64
2022/10/12 11:13:33;;;;;;;9.15;3.90;;;14.90;99.90;;;;;;5033457;28;20214;-64
2022/10/12 11:16:27;;;;;;;8.13;3.63;;;15.20;99.90;;;;;;5033728;28;20628;-64
2022/10/12 11:18:59;;;;;;;6.53;3.33;;;15.30;99.90;;;;;;5020255;28;20243;-64
2022/10/12 11:21:55;;;;;;;7.25;3.90;;;15.40;99.90;;;;;;5012430;28;20186;-63
2022/10/12 11:24:47;;;;;;;6.40;3.30;;;15.60;99.90;;;;;;5013815;28;20164;-63
2022/10/12 11:27:23;;;;;;;7.30;3.40;;;15.60;99.90;;;;;;5013412;28;20218;-63
2022/10/12 11:29:59;;;;;;;5.10;3.63;;;15.50;99.90;;;;;;5013977;28;20225;-63
2022/10/12 11:32:31;;;;;;;5.03;3.30;;;15.40;99.90;;;;;;5013432;28;20234;-63
2022/10/12 11:35:01;;;;;;;8.93;3.47;;;15.50;99.90;;;;;;5013900;28;20175;-63
2022/10/12 11:37:49;;;;;;;9.82;3.65;;;15.80;99.90;;;;;;5013912;28;20187;-63
2022/10/12 11:40:36;;;;;;;5.07;3.50;;;16.20;99.90;;;;;;5014189;28;20517;-63
2022/10/12 11:43:11;;;;;;;6.55;3.20;;;16.60;99.90;;;;;;5013725;28;20207;-63
2022/10/12 11:45:42;;;;;;;10.15;3.42;;;16.90;99.90;;;;;;5013786;28;20167;-63
2022/10/12 11:48:19;;;;;;;6.25;3.20;;;17.00;99.90;;;;;;5024728;28;20644;-63
2022/10/12 11:50:47;;;;;;;7.47;3.42;;;17.40;99.90;;;;;;5033743;28;20647;-63
2022/10/12 11:53:21;;;;;;;8.85;3.40;;;17.60;99.90;;;;;;5033007;28;20640;-63
2022/10/12 11:56:09;;;;;;;5.75;3.17;;;17.70;99.90;;;;;;5033149;28;20186;-63
2022/10/12 11:58:38;;;;;;;6.57;3.45;;;17.70;99.90;;;;;;5033119;28;20216;-63
2022/10/12 12:01:28;;;;;;;6.38;2.90;;;17.70;99.90;;;;;;5033369;28;20168;-63
2022/10/12 12:04:13;;;;;;;7.30;3.20;;;17.60;99.90;;;;;;5033042;28;20163;-63
2022/10/12 12:06:41;;;;;;;7.63;3.83;;;17.60;99.90;;;;;;5033389;28;20169;-63
2022/10/12 12:09:30;;;;;;;11.18;3.38;;;17.60;99.90;;;;;;5032799;28;20175;-63
2022/10/12 12:12:16;;;;;;;6.95;3.08;;;17.40;99.90;;;;;;5033081;28;20219;-63
2022/10/12 12:15:01;;;;;;;6.55;3.40;;;17.40;99.90;;;;;;5032977;28;20147;-62
2022/10/12 12:17:30;;;;;;;6.57;3.30;;;17.20;99.90;;;;;;5032910;28;20171;-63
2022/10/12 12:19:58;;;;;;;10.30;3.30;;;17.10;99.90;;;;;;5033167;28;20247;-63
2022/10/12 12:22:46;;;;;;;8.32;3.38;;;16.90;99.90;;;;;;5032958;28;20244;-63
2022/10/12 12:25:30;;;;;;;6.45;3.20;;;16.80;99.90;;;;;;5033154;28;20246;-63
2022/10/12 12:28:04;;;;;;;7.22;3.38;;;16.50;99.90;;;;;;5032736;28;20202;-62
2022/10/12 12:30:36;;;;;;;13.18;3.70;;;16.30;99.90;;;;;;5031838;28;20624;-62
2022/10/12 12:33:26;;;;;;;7.78;3.28;;;16.30;99.90;;;;;;5032742;28;20203;-63
2022/10/12 12:36:02;;;;;;;7.28;3.60;;;16.20;99.90;;;;;;5034404;28;20162;-62
2022/10/12 12:38:36;;;;;;;5.47;3.05;;;16.10;99.90;;;;;;5036469;28;20152;-63
2022/10/12 12:41:09;;;;;;;8.60;3.55;;;16.10;99.90;;;;;;5036911;28;20574;-62
2022/10/12 12:43:48;;;;;;;9.25;3.70;;;16.00;99.90;;;;;;5036746;28;20245;-63
2022/10/12 12:46:14;;;;;;;5.25;3.17;;;16.00;99.90;;;;;;5035100;28;20549;-63
2022/10/12 12:48:40;;;;;;;5.15;3.72;;;16.20;99.90;;;;;;5036333;28;20175;-63
2022/10/12 12:51:34;;;;;;;6.32;3.60;;;16.10;99.90;;;;;;5034780;28;20548;-63
2022/10/12 12:54:12;;;;;;;5.78;3.58;;;16.10;99.90;;;;;;5035399;28;20582;-63
2022/10/12 12:56:41;;;;;;;8.25;3.58;;;16.10;99.90;;;;;;5036368;28;20299;-63
2022/10/12 12:59:15;;;;;;;8.52;3.80;;;16.10;99.90;;;;;;5036272;28;20204;-63
2022/10/12 13:01:50;;;;;;;10.38;4.13;;;16.20;99.90;;;;;;5034818;28;20203;-63